createdAt,value
2016-10-17T00:00:32.010Z,10.49
2016-10-17T00:01:31.731Z,10.55
2016-10-17T00:02:32.072Z,10.53
2016-10-17T00:03:32.093Z,10.53
2016-10-17T00:04:32.185Z,10.49
2016-10-17T00:05:31.810Z,10.49
2016-10-17T00:06:31.818Z,10.36
2016-10-17T00:07:32.149Z,10.41
2016-10-17T00:08:32.170Z,10.48
2016-10-17T00:09:32.180Z,10.51
2016-10-17T00:10:32.209Z,10.41
2016-10-17T00:11:32.219Z,10.39
2016-10-17T00:12:32.233Z,10.45
2016-10-17T00:13:32.248Z,10.46
2016-10-17T00:14:32.278Z,10.42
2016-10-17T00:15:32.298Z,10.42
2016-10-17T00:16:32.298Z,10.41
2016-10-17T00:17:32.327Z,10.53
2016-10-17T00:18:32.339Z,10.53
2016-10-17T00:19:32.381Z,10.49
2016-10-17T00:20:32.388Z,10.46
2016-10-17T00:21:32.084Z,10.49
2016-10-17T00:22:32.110Z,10.49
2016-10-17T00:23:32.432Z,10.39
2016-10-17T00:24:32.442Z,10.53
2016-10-17T00:25:32.468Z,10.49
2016-10-17T00:26:32.188Z,10.55
2016-10-17T00:27:32.508Z,10.53
2016-10-17T00:28:32.209Z,10.57
2016-10-17T00:29:32.542Z,10.57
2016-10-17T00:30:32.616Z,10.49
2016-10-17T00:31:32.578Z,10.58
2016-10-17T00:32:32.599Z,10.55
2016-10-17T00:33:32.616Z,10.53
2016-10-17T00:34:32.641Z,10.62
2016-10-17T00:35:32.654Z,10.61
2016-10-17T00:36:32.368Z,10.55
2016-10-17T00:37:32.689Z,10.58
2016-10-17T00:38:32.397Z,10.61
2016-10-17T00:39:32.726Z,10.49
2016-10-17T00:40:32.752Z,10.51
2016-10-17T00:41:32.768Z,10.51
2016-10-17T00:42:32.776Z,10.48
2016-10-17T00:43:32.806Z,10.41
2016-10-17T00:44:32.817Z,10.3
2016-10-17T00:45:32.838Z,10.36
2016-10-17T00:46:32.533Z,10.34
2016-10-17T00:47:32.884Z,10.33
2016-10-17T00:48:32.568Z,10.39
2016-10-17T00:49:32.688Z,10.39
2016-10-17T00:50:32.928Z,10.45
2016-10-17T00:51:32.951Z,10.39
2016-10-17T00:52:32.646Z,10.51
2016-10-17T00:53:32.981Z,10.51
2016-10-17T00:54:33.008Z,10.49
2016-10-17T00:55:33.094Z,10.48
2016-10-17T00:56:32.728Z,10.46
2016-10-17T00:57:32.734Z,10.62
2016-10-17T00:58:33.069Z,10.49
2016-10-17T00:59:33.094Z,10.62
2016-10-17T01:00:33.117Z,10.49
2016-10-17T01:01:33.120Z,10.53
2016-10-17T01:02:33.137Z,10.53
2016-10-17T01:03:33.143Z,10.41
2016-10-17T01:04:33.168Z,10.39
2016-10-17T01:05:33.189Z,10.45
2016-10-17T01:06:33.226Z,10.51
2016-10-17T01:07:33.249Z,10.45
2016-10-17T01:08:33.324Z,10.36
2016-10-17T01:09:33.317Z,10.43
2016-10-17T01:10:33.318Z,10.42
2016-10-17T01:11:33.407Z,10.39
2016-10-17T01:12:33.331Z,10.36
2016-10-17T01:13:33.358Z,10.28
2016-10-17T01:14:33.368Z,10.41
2016-10-17T01:15:33.070Z,10.33
2016-10-17T01:16:33.398Z,10.3
2016-10-17T01:17:33.416Z,10.36
2016-10-17T01:18:33.425Z,10.34
2016-10-17T01:19:33.470Z,10.3
2016-10-17T01:20:33.469Z,10.33
2016-10-17T01:21:33.557Z,10.33
2016-10-17T01:22:33.610Z,10.45
2016-10-17T01:23:33.591Z,10.3
2016-10-17T01:24:33.651Z,10.43
2016-10-17T01:25:33.569Z,10.3
2016-10-17T01:26:33.570Z,10.38
2016-10-17T01:27:33.599Z,10.28
2016-10-17T01:28:33.003Z,10.34
2016-10-17T01:29:33.625Z,10.43
2016-10-17T01:30:33.660Z,10.42
2016-10-17T01:31:33.667Z,10.42
2016-10-17T01:32:33.699Z,10.39
2016-10-17T01:33:33.699Z,10.41
2016-10-17T01:34:33.723Z,10.41
2016-10-17T01:35:33.852Z,10.39
2016-10-17T01:36:33.856Z,10.41
2016-10-17T01:37:33.472Z,10.39
2016-10-17T01:38:33.796Z,10.38
2016-10-17T01:39:33.200Z,10.31
2016-10-17T01:40:33.837Z,10.33
2016-10-17T01:41:33.542Z,10.39
2016-10-17T01:42:33.878Z,10.39
2016-10-17T01:43:33.893Z,10.36
2016-10-17T01:44:33.901Z,10.34
2016-10-17T01:45:33.659Z,10.31
2016-10-17T01:46:33.951Z,10.27
2016-10-17T01:47:33.653Z,10.31
2016-10-17T01:48:33.726Z,10.38
2016-10-17T01:49:33.990Z,10.18
2016-10-17T01:50:34.070Z,10.15
2016-10-17T01:51:33.721Z,10.24
2016-10-17T01:52:34.047Z,10.12
2016-10-17T01:53:34.079Z,10.21
2016-10-17T01:54:34.295Z,10.15
2016-10-17T01:55:34.101Z,10.21
2016-10-17T01:56:34.113Z,10.18
2016-10-17T01:57:33.937Z,10.13
2016-10-17T01:58:34.145Z,10.15
2016-10-17T01:59:34.329Z,10.23
2016-10-17T02:00:34.193Z,10.18
2016-10-17T02:01:34.219Z,10.18
2016-10-17T02:02:34.225Z,10.21
2016-10-17T02:03:33.937Z,10.21
2016-10-17T02:04:34.269Z,10.25
2016-10-17T02:05:34.019Z,10.2
2016-10-17T02:06:34.288Z,10.17
2016-10-17T02:07:34.322Z,10.18
2016-10-17T02:08:34.022Z,10.24
2016-10-17T02:09:34.038Z,10.23
2016-10-17T02:10:33.773Z,10.12
2016-10-17T02:11:34.383Z,10.18
2016-10-17T02:12:34.420Z,10.18
2016-10-17T02:13:34.427Z,10.23
2016-10-17T02:14:34.440Z,10.1
2016-10-17T02:15:34.447Z,10.13
2016-10-17T02:16:34.504Z,10.12
2016-10-17T02:17:34.500Z,10.18
2016-10-17T02:18:34.527Z,10.24
2016-10-17T02:19:34.216Z,10.12
2016-10-17T02:20:34.569Z,10.17
2016-10-17T02:21:34.563Z,10.18
2016-10-17T02:22:34.283Z,10.23
2016-10-17T02:23:34.603Z,10.18
2016-10-17T02:24:34.620Z,10.2
2016-10-17T02:25:34.337Z,10.15
2016-10-17T02:26:34.657Z,10.18
2016-10-17T02:27:34.678Z,10.18
2016-10-17T02:28:34.691Z,10.18
2016-10-17T02:29:34.721Z,10.23
2016-10-17T02:30:34.739Z,10.23
2016-10-17T02:31:34.451Z,10.18
2016-10-17T02:32:34.763Z,10.23
2016-10-17T02:33:34.788Z,10.27
2016-10-17T02:34:34.804Z,10.2
2016-10-17T02:35:34.831Z,10.2
2016-10-17T02:36:34.853Z,10.1
2016-10-17T02:37:34.534Z,10.07
2016-10-17T02:38:34.958Z,10.18
2016-10-17T02:39:34.580Z,10.24
2016-10-17T02:40:35.012Z,10.24
2016-10-17T02:41:34.924Z,10.21
2016-10-17T02:42:34.642Z,10.13
2016-10-17T02:43:34.965Z,10.2
2016-10-17T02:44:34.984Z,10.18
2016-10-17T02:45:35.005Z,10.18
2016-10-17T02:46:35.032Z,10.2
2016-10-17T02:47:35.044Z,10.18
2016-10-17T02:48:34.828Z,10.15
2016-10-17T02:49:34.458Z,10.1
2016-10-17T02:50:35.104Z,10.12
2016-10-17T02:51:35.122Z,10.31
2016-10-17T02:52:35.145Z,10.33
2016-10-17T02:53:35.233Z,10.38
2016-10-17T02:54:35.185Z,10.27
2016-10-17T02:55:34.883Z,10.42
2016-10-17T02:56:35.198Z,10.41
2016-10-17T02:57:35.278Z,10.43
2016-10-17T02:58:35.232Z,10.42
2016-10-17T02:59:35.256Z,10.38
2016-10-17T03:00:34.966Z,10.41
2016-10-17T03:01:35.334Z,10.39
2016-10-17T03:02:35.004Z,10.39
2016-10-17T03:03:35.327Z,10.42
2016-10-17T03:04:35.346Z,10.42
2016-10-17T03:05:35.466Z,10.45
2016-10-17T03:06:35.396Z,10.48
2016-10-17T03:07:35.475Z,10.51
2016-10-17T03:08:35.434Z,10.45
2016-10-17T03:09:35.465Z,10.45
2016-10-17T03:10:35.157Z,10.57
2016-10-17T03:11:35.531Z,10.51
2016-10-17T03:12:35.496Z,10.48
2016-10-17T03:13:35.509Z,10.57
2016-10-17T03:14:35.527Z,10.49
2016-10-17T03:15:35.232Z,10.53
2016-10-17T03:16:35.266Z,10.48
2016-10-17T03:17:35.597Z,10.49
2016-10-17T03:18:35.309Z,10.53
2016-10-17T03:19:35.656Z,10.49
2016-10-17T03:20:35.697Z,10.59
2016-10-17T03:21:35.658Z,10.61
2016-10-17T03:22:35.706Z,10.61
2016-10-17T03:24:07.447Z,10.64
2016-10-17T03:24:35.726Z,10.58
2016-10-17T03:25:35.417Z,10.62
2016-10-17T03:26:35.755Z,10.59
2016-10-17T03:27:35.766Z,10.53
2016-10-17T03:28:35.780Z,10.46
2016-10-17T03:29:35.809Z,10.55
2016-10-17T03:30:35.634Z,10.64
2016-10-17T03:31:35.843Z,10.59
2016-10-17T03:32:35.917Z,10.64
2016-10-17T03:33:35.650Z,10.61
2016-10-17T03:34:35.584Z,10.59
2016-10-17T03:35:35.968Z,10.61
2016-10-17T03:36:35.624Z,10.64
2016-10-17T03:37:35.948Z,10.72
2016-10-17T03:38:35.969Z,10.76
2016-10-17T03:39:35.989Z,10.72
2016-10-17T03:40:36.022Z,10.71
2016-10-17T03:41:35.720Z,10.68
2016-10-17T03:42:36.038Z,10.77
2016-10-17T03:43:36.089Z,10.62
2016-10-17T03:44:36.153Z,10.72
2016-10-17T03:45:36.103Z,10.71
2016-10-17T03:46:36.113Z,10.76
2016-10-17T03:47:36.169Z,10.79
2016-10-17T03:48:36.153Z,10.76
2016-10-17T03:49:36.170Z,10.76
2016-10-17T03:50:35.968Z,10.72
2016-10-17T03:51:36.199Z,10.76
2016-10-17T03:52:36.229Z,10.82
2016-10-17T03:53:35.951Z,10.76
2016-10-17T03:54:36.048Z,10.71
2016-10-17T03:55:36.295Z,10.8
2016-10-17T03:56:36.340Z,10.8
2016-10-17T03:57:36.316Z,10.84
2016-10-17T03:58:36.346Z,10.9
2016-10-17T03:59:36.362Z,10.87
2016-10-17T04:00:36.069Z,10.77
2016-10-17T04:01:36.408Z,10.83
2016-10-17T04:02:36.412Z,10.9
2016-10-17T04:03:36.124Z,10.84
2016-10-17T04:04:36.133Z,10.98
2016-10-17T04:05:36.196Z,10.95
2016-10-17T04:06:36.503Z,11
2016-10-17T04:07:36.511Z,10.94
2016-10-17T04:08:36.210Z,10.95
2016-10-17T04:09:36.225Z,11.04
2016-10-17T04:10:36.236Z,11.05
2016-10-17T04:11:36.950Z,11.05
2016-10-17T04:12:36.859Z,11.12
2016-10-17T04:13:36.982Z,11.1
2016-10-17T04:14:36.931Z,11.12
2016-10-17T04:15:36.611Z,11.19
2016-10-17T04:16:36.588Z,11.19
2016-10-17T04:17:36.950Z,11.15
2016-10-17T04:18:36.884Z,11.1
2016-10-17T04:19:36.969Z,11.13
2016-10-17T04:20:37.040Z,11.16
2016-10-17T04:21:36.604Z,11.25
2016-10-17T04:22:36.880Z,11.23
2016-10-17T04:23:36.998Z,11.2
2016-10-17T04:24:36.599Z,11.22
2016-10-17T04:25:36.929Z,11.26
2016-10-17T04:26:36.988Z,11.27
2016-10-17T04:27:36.917Z,11.35
2016-10-17T04:28:36.632Z,11.35
2016-10-17T04:29:36.646Z,11.35
2016-10-17T04:30:36.991Z,11.37
2016-10-17T04:31:37.002Z,11.38
2016-10-17T04:32:36.712Z,11.38
2016-10-17T04:33:36.659Z,11.44
2016-10-17T04:34:36.693Z,11.38
2016-10-17T04:35:36.719Z,11.38
2016-10-17T04:36:36.817Z,11.35
2016-10-17T04:37:36.953Z,11.48
2016-10-17T04:38:36.761Z,11.44
2016-10-17T04:39:37.099Z,11.44
2016-10-17T04:40:36.809Z,11.48
2016-10-17T04:41:36.819Z,11.4
2016-10-17T04:42:37.146Z,11.44
2016-10-17T04:43:37.165Z,11.43
2016-10-17T04:44:36.875Z,11.44
2016-10-17T04:45:37.201Z,11.4
2016-10-17T04:46:37.209Z,11.49
2016-10-17T04:47:37.249Z,11.51
2016-10-17T04:48:37.267Z,11.48
2016-10-17T04:49:37.401Z,11.49
2016-10-17T04:50:37.312Z,11.48
2016-10-17T04:51:37.057Z,11.52
2016-10-17T04:52:37.350Z,11.51
2016-10-17T04:53:37.049Z,11.52
2016-10-17T04:54:37.068Z,11.48
2016-10-17T04:55:37.087Z,11.51
2016-10-17T04:56:37.420Z,11.51
2016-10-17T04:57:37.134Z,11.48
2016-10-17T04:58:37.132Z,11.45
2016-10-17T04:59:37.154Z,11.52
2016-10-17T05:00:37.486Z,11.56
2016-10-17T05:01:37.251Z,11.59
2016-10-17T05:02:37.535Z,11.59
2016-10-17T05:03:37.626Z,11.58
2016-10-17T05:04:37.267Z,11.55
2016-10-17T05:05:37.599Z,11.62
2016-10-17T05:06:37.695Z,11.53
2016-10-17T05:07:37.630Z,11.59
2016-10-17T05:08:37.633Z,11.58
2016-10-17T05:09:37.349Z,11.56
2016-10-17T05:10:37.668Z,11.58
2016-10-17T05:11:37.699Z,11.63
2016-10-17T05:12:37.729Z,11.63
2016-10-17T05:13:37.479Z,11.56
2016-10-17T05:14:37.570Z,11.65
2016-10-17T05:15:37.900Z,11.53
2016-10-17T05:16:37.884Z,11.44
2016-10-17T05:17:37.849Z,11.62
2016-10-17T05:18:37.917Z,11.58
2016-10-17T05:19:37.897Z,11.53
2016-10-17T05:20:37.885Z,11.6
2016-10-17T05:21:37.272Z,11.56
2016-10-17T05:22:37.909Z,11.55
2016-10-17T05:23:37.920Z,11.52
2016-10-17T05:24:37.624Z,11.58
2016-10-17T05:25:37.949Z,11.59
2016-10-17T05:26:38.060Z,11.55
2016-10-17T05:27:37.693Z,11.63
2016-10-17T05:28:38.019Z,11.56
2016-10-17T05:29:37.529Z,11.68
2016-10-17T05:30:38.059Z,11.53
2016-10-17T05:31:37.778Z,11.56
2016-10-17T05:32:38.134Z,11.6
2016-10-17T05:33:38.127Z,11.59
2016-10-17T05:34:37.806Z,11.63
2016-10-17T05:35:37.848Z,11.63
2016-10-17T05:36:37.915Z,11.56
2016-10-17T05:37:37.873Z,11.56
2016-10-17T05:38:38.014Z,11.58
2016-10-17T05:39:38.220Z,11.55
2016-10-17T05:40:37.939Z,11.55
2016-10-17T05:41:37.640Z,11.67
2016-10-17T05:42:38.020Z,11.58
2016-10-17T05:43:38.322Z,11.62
2016-10-17T05:44:38.069Z,11.67
2016-10-17T05:45:38.028Z,11.68
2016-10-17T05:46:38.380Z,11.62
2016-10-17T05:47:38.374Z,11.71
2016-10-17T05:48:38.407Z,11.65
2016-10-17T05:49:38.416Z,11.62
2016-10-17T05:50:38.440Z,11.65
2016-10-17T05:51:38.439Z,11.71
2016-10-17T05:52:38.172Z,11.63
2016-10-17T05:53:38.194Z,11.67
2016-10-17T05:54:38.516Z,11.58
2016-10-17T05:55:38.522Z,11.76
2016-10-17T05:56:38.236Z,11.76
2016-10-17T05:57:38.620Z,11.7
2016-10-17T05:58:38.275Z,11.74
2016-10-17T05:59:38.608Z,11.65
2016-10-17T06:00:38.615Z,11.71
2016-10-17T06:01:38.381Z,11.71
2016-10-17T06:02:38.664Z,11.77
2016-10-17T06:03:38.378Z,11.7
2016-10-17T06:04:38.696Z,11.7
2016-10-17T06:05:38.720Z,11.63
2016-10-17T06:06:38.748Z,11.68
2016-10-17T06:07:38.456Z,11.68
2016-10-17T06:08:38.467Z,11.71
2016-10-17T06:09:38.805Z,11.7
2016-10-17T06:10:38.496Z,11.63
2016-10-17T06:11:38.822Z,11.78
2016-10-17T06:12:38.537Z,11.78
2016-10-17T06:13:38.549Z,11.7
2016-10-17T06:14:38.577Z,11.74
2016-10-17T06:15:38.607Z,11.67
2016-10-17T06:16:38.618Z,11.8
2016-10-17T06:17:38.622Z,11.78
2016-10-17T06:18:38.959Z,11.77
2016-10-17T06:19:38.999Z,11.77
2016-10-17T06:20:38.684Z,11.71
2016-10-17T06:21:38.720Z,11.77
2016-10-17T06:22:38.735Z,11.74
2016-10-17T06:23:38.751Z,11.86
2016-10-17T06:24:39.086Z,11.77
2016-10-17T06:25:38.779Z,11.77
2016-10-17T06:26:39.114Z,11.83
2016-10-17T06:27:39.124Z,11.86
2016-10-17T06:28:39.160Z,11.85
2016-10-17T06:29:38.874Z,11.81
2016-10-17T06:30:38.882Z,11.81
2016-10-17T06:31:39.202Z,11.91
2016-10-17T06:32:39.224Z,11.85
2016-10-17T06:33:38.939Z,11.88
2016-10-17T06:34:38.956Z,11.97
2016-10-17T06:35:39.308Z,11.96
2016-10-17T06:36:39.370Z,11.78
2016-10-17T06:37:39.316Z,11.97
2016-10-17T06:38:39.342Z,11.95
2016-10-17T06:39:39.365Z,11.93
2016-10-17T06:40:39.386Z,11.99
2016-10-17T06:41:39.413Z,11.91
2016-10-17T06:42:39.413Z,12
2016-10-17T06:43:39.132Z,12.07
2016-10-17T06:44:39.477Z,12.03
2016-10-17T06:45:39.485Z,11.96
2016-10-17T06:46:39.262Z,12.02
2016-10-17T06:47:39.513Z,12.05
2016-10-17T06:48:39.231Z,12.02
2016-10-17T06:49:39.251Z,12.07
2016-10-17T06:50:39.583Z,12.15
2016-10-17T06:51:39.281Z,12.15
2016-10-17T06:52:39.621Z,12.17
2016-10-17T06:53:39.317Z,12.23
2016-10-17T06:54:39.658Z,12.26
2016-10-17T06:55:39.673Z,12.21
2016-10-17T06:56:39.769Z,12.18
2016-10-17T06:57:39.400Z,12.21
2016-10-17T06:58:39.111Z,12.14
2016-10-17T06:59:39.479Z,12.25
2016-10-17T07:00:39.840Z,12.26
2016-10-17T07:01:39.795Z,12.17
2016-10-17T07:02:39.208Z,12.25
2016-10-17T07:03:39.856Z,12.28
2016-10-17T07:04:39.859Z,12.25
2016-10-17T07:05:39.563Z,12.25
2016-10-17T07:06:39.868Z,12.29
2016-10-17T07:07:39.886Z,12.33
2016-10-17T07:08:39.923Z,12.37
2016-10-17T07:09:40.112Z,12.26
2016-10-17T07:10:39.966Z,12.32
2016-10-17T07:11:40.104Z,12.26
2016-10-17T07:12:40.035Z,12.33
2016-10-17T07:13:40.126Z,12.29
2016-10-17T07:14:40.054Z,12.33
2016-10-17T07:15:39.800Z,12.33
2016-10-17T07:16:40.126Z,12.4
2016-10-17T07:17:40.107Z,12.36
2016-10-17T07:18:40.126Z,12.47
2016-10-17T07:19:40.152Z,12.45
2016-10-17T07:20:40.165Z,12.61
2016-10-17T07:21:39.873Z,12.61
2016-10-17T07:22:39.895Z,12.63
2016-10-17T07:23:40.235Z,12.73
2016-10-17T07:24:40.304Z,12.76
2016-10-17T07:25:40.291Z,12.68
2016-10-17T07:26:40.364Z,12.75
2016-10-17T07:27:40.292Z,12.72
2016-10-17T07:28:39.995Z,12.73
2016-10-17T07:29:40.346Z,12.73
2016-10-17T07:30:40.053Z,12.73
2016-10-17T07:31:40.379Z,12.81
2016-10-17T07:32:40.389Z,12.63
2016-10-17T07:33:40.426Z,12.81
2016-10-17T07:34:40.413Z,12.72
2016-10-17T07:35:40.463Z,12.72
2016-10-17T07:36:40.163Z,12.73
2016-10-17T07:37:40.508Z,12.84
2016-10-17T07:38:40.515Z,12.8
2016-10-17T07:39:40.536Z,12.87
2016-10-17T07:40:40.234Z,12.81
2016-10-17T07:41:40.559Z,12.88
2016-10-17T07:42:40.271Z,12.86
2016-10-17T07:43:40.623Z,12.91
2016-10-17T07:44:40.624Z,12.84
2016-10-17T07:45:40.345Z,12.95
2016-10-17T07:46:40.670Z,12.91
2016-10-17T07:47:40.692Z,13.01
2016-10-17T07:48:40.126Z,12.93
2016-10-17T07:49:40.430Z,12.88
2016-10-17T07:50:40.800Z,12.91
2016-10-17T07:51:40.777Z,12.93
2016-10-17T07:52:40.800Z,12.95
2016-10-17T07:53:40.853Z,12.91
2016-10-17T07:54:40.825Z,12.93
2016-10-17T07:55:40.545Z,13.01
2016-10-17T07:56:40.556Z,13.05
2016-10-17T07:57:40.901Z,13.01
2016-10-17T07:58:40.937Z,13.01
2016-10-17T08:00:40.947Z,13.02
2016-10-17T08:01:40.664Z,13.03
2016-10-17T08:02:41.029Z,12.95
2016-10-17T08:03:40.995Z,13.08
2016-10-17T08:04:41.027Z,13.17
2016-10-17T08:05:41.078Z,13.2
2016-10-17T08:06:41.076Z,13.2
2016-10-17T08:07:40.509Z,13.19
2016-10-17T08:08:41.108Z,13.26
2016-10-17T08:09:40.833Z,13.27
2016-10-17T08:10:41.158Z,13.3
2016-10-17T08:11:41.175Z,13.42
2016-10-17T08:12:40.887Z,13.36
2016-10-17T08:13:41.214Z,13.37
2016-10-17T08:14:41.226Z,13.33
2016-10-17T08:15:41.258Z,13.47
2016-10-17T08:16:41.390Z,13.6
2016-10-17T08:17:41.294Z,13.54
2016-10-17T08:18:41.364Z,13.64
2016-10-17T08:19:41.327Z,13.64
2016-10-17T08:20:41.046Z,13.68
2016-10-17T08:21:41.067Z,13.73
2016-10-17T08:22:41.402Z,13.79
2016-10-17T08:23:41.102Z,13.89
2016-10-17T08:24:41.447Z,13.83
2016-10-17T08:25:41.150Z,13.82
2016-10-17T08:26:41.580Z,13.78
2016-10-17T08:27:41.518Z,13.7
2016-10-17T08:28:41.515Z,13.78
2016-10-17T08:29:40.919Z,13.71
2016-10-17T08:30:41.555Z,13.6
2016-10-17T08:31:41.268Z,13.71
2016-10-17T08:32:41.325Z,13.73
2016-10-17T08:33:41.357Z,13.8
2016-10-17T08:34:41.679Z,13.73
2016-10-17T08:35:41.658Z,13.8
2016-10-17T08:36:41.678Z,13.76
2016-10-17T08:37:41.407Z,13.82
2016-10-17T08:38:41.718Z,13.83
2016-10-17T08:39:41.808Z,13.95
2016-10-17T08:40:41.806Z,13.89
2016-10-17T08:41:41.826Z,13.87
2016-10-17T08:42:41.801Z,13.97
2016-10-17T08:43:41.828Z,13.94
2016-10-17T08:44:41.855Z,13.97
2016-10-17T08:45:41.561Z,14
2016-10-17T08:46:41.646Z,14.07
2016-10-17T08:47:41.905Z,14.05
2016-10-17T08:48:41.626Z,13.98
2016-10-17T08:49:41.806Z,14.04
2016-10-17T08:50:41.775Z,14.11
2016-10-17T08:51:42.065Z,14.16
2016-10-17T08:52:41.380Z,14.28
2016-10-17T08:53:42.128Z,14.19
2016-10-17T08:54:41.737Z,14.23
2016-10-17T08:55:41.748Z,14.33
2016-10-17T08:56:42.092Z,14.38
2016-10-17T08:57:42.124Z,14.37
2016-10-17T08:58:42.126Z,14.33
2016-10-17T08:59:42.159Z,14.49
2016-10-17T09:00:41.664Z,14.61
2016-10-17T09:01:42.213Z,14.7
2016-10-17T09:02:42.311Z,14.78
2016-10-17T09:03:42.294Z,14.82
2016-10-17T09:04:42.355Z,14.89
2016-10-17T09:05:42.274Z,14.86
2016-10-17T09:06:42.294Z,14.96
2016-10-17T09:07:42.393Z,14.94
2016-10-17T09:08:42.361Z,14.87
2016-10-17T09:09:42.359Z,14.81
2016-10-17T09:10:42.396Z,14.78
2016-10-17T09:11:42.407Z,14.77
2016-10-17T09:12:42.423Z,14.77
2016-10-17T09:13:42.606Z,14.74
2016-10-17T09:14:42.467Z,14.81
2016-10-17T09:15:42.175Z,14.81
2016-10-17T09:16:42.214Z,14.93
2016-10-17T09:17:42.575Z,14.93
2016-10-17T09:18:42.595Z,14.81
2016-10-17T09:19:42.576Z,14.82
2016-10-17T09:20:42.604Z,14.78
2016-10-17T09:21:42.625Z,14.82
2016-10-17T09:22:42.646Z,14.82
2016-10-17T09:23:42.676Z,14.85
2016-10-17T09:24:42.681Z,15
2016-10-17T09:25:42.715Z,14.92
2016-10-17T09:26:42.776Z,14.92
2016-10-17T09:27:42.750Z,14.9
2016-10-17T09:28:42.837Z,14.93
2016-10-17T09:29:42.797Z,14.99
2016-10-17T09:30:42.184Z,15.11
2016-10-17T09:31:42.846Z,15.17
2016-10-17T09:32:42.553Z,15.17
2016-10-17T09:33:42.877Z,15.17
2016-10-17T09:34:42.926Z,15.22
2016-10-17T09:35:42.608Z,15.48
2016-10-17T09:36:42.630Z,15.54
2016-10-17T09:37:42.662Z,15.57
2016-10-17T09:38:43.005Z,15.76
2016-10-17T09:39:42.699Z,15.99
2016-10-17T09:40:42.720Z,16.18
2016-10-17T09:41:43.064Z,16.17
2016-10-17T09:42:43.076Z,16.24
2016-10-17T09:43:42.782Z,16.29
2016-10-17T09:44:43.116Z,16.28
2016-10-17T09:45:42.522Z,16.28
2016-10-17T09:46:42.846Z,16.28
2016-10-17T09:47:42.861Z,16.22
2016-10-17T09:48:42.900Z,16.16
2016-10-17T09:49:43.246Z,16.21
2016-10-17T09:50:43.256Z,16.28
2016-10-17T09:51:43.277Z,16.41
2016-10-17T09:52:43.292Z,16.44
2016-10-17T09:53:43.328Z,16.43
2016-10-17T09:54:43.036Z,16.47
2016-10-17T09:55:43.374Z,16.5
2016-10-17T09:56:43.405Z,16.47
2016-10-17T09:57:43.103Z,16.57
2016-10-17T09:58:43.279Z,16.58
2016-10-17T09:59:43.487Z,16.66
2016-10-17T10:00:42.850Z,16.8
2016-10-17T10:01:43.184Z,16.89
2016-10-17T10:03:15.507Z,16.86
2016-10-17T10:03:43.224Z,16.87
2016-10-17T10:04:43.041Z,16.65
2016-10-17T10:05:43.278Z,16.64
2016-10-17T10:06:43.705Z,16.59
2016-10-17T10:07:43.643Z,16.66
2016-10-17T10:08:43.354Z,16.68
2016-10-17T10:09:43.685Z,16.84
2016-10-17T10:10:43.707Z,16.92
2016-10-17T10:11:43.105Z,17.01
2016-10-17T10:12:43.444Z,17.2
2016-10-17T10:13:43.777Z,17.04
2016-10-17T10:14:43.174Z,16.95
2016-10-17T10:15:43.898Z,16.87
2016-10-17T10:16:43.532Z,16.82
2016-10-17T10:17:43.553Z,16.69
2016-10-17T10:18:43.587Z,16.68
2016-10-17T10:19:43.617Z,16.69
2016-10-17T10:20:43.625Z,16.68
2016-10-17T10:21:43.416Z,16.66
2016-10-17T10:22:43.677Z,16.72
2016-10-17T10:23:43.711Z,16.69
2016-10-17T10:24:43.755Z,16.73
2016-10-17T10:25:43.854Z,16.84
2016-10-17T10:26:44.157Z,16.86
2016-10-17T10:27:43.806Z,16.83
2016-10-17T10:28:43.608Z,16.8
2016-10-17T10:29:44.206Z,16.97
2016-10-17T10:30:44.160Z,17.1
2016-10-17T10:31:43.887Z,17.05
2016-10-17T10:32:44.026Z,16.98
2016-10-17T10:33:43.939Z,16.84
2016-10-17T10:34:43.946Z,16.87
2016-10-17T10:35:44.580Z,17.05
2016-10-17T10:36:44.028Z,17.07
2016-10-17T10:37:44.004Z,17.1
2016-10-17T10:38:44.115Z,17.13
2016-10-17T10:39:44.576Z,17.23
2016-10-17T10:40:44.592Z,17.17
2016-10-17T10:41:44.103Z,17.27
2016-10-17T10:42:44.620Z,17.24
2016-10-17T10:43:44.153Z,17.31
2016-10-17T10:44:44.487Z,17.41
2016-10-17T10:45:44.650Z,17.41
2016-10-17T10:46:44.219Z,17.52
2016-10-17T10:47:44.245Z,17.6
2016-10-17T10:48:44.672Z,17.57
2016-10-17T10:49:44.714Z,17.56
2016-10-17T10:50:44.733Z,17.59
2016-10-17T10:51:44.377Z,17.54
2016-10-17T10:52:44.678Z,17.56
2016-10-17T10:53:44.744Z,17.53
2016-10-17T10:54:44.390Z,17.65
2016-10-17T10:55:44.426Z,17.79
2016-10-17T10:56:44.754Z,17.86
2016-10-17T10:57:44.749Z,17.86
2016-10-17T10:58:44.747Z,17.9
2016-10-17T10:59:44.824Z,17.8
2016-10-17T11:00:44.753Z,17.79
2016-10-17T11:01:44.818Z,17.88
2016-10-17T11:02:44.936Z,17.91
2016-10-17T11:03:44.931Z,18.02
2016-10-17T11:04:44.939Z,17.95
2016-10-17T11:05:44.977Z,18.09
2016-10-17T11:06:44.996Z,18.13
2016-10-17T11:07:44.970Z,18.45
2016-10-17T11:08:45.046Z,18.53
2016-10-17T11:09:44.803Z,18.63
2016-10-17T11:10:45.082Z,18.58
2016-10-17T11:11:44.869Z,18.64
2016-10-17T11:12:44.836Z,18.6
2016-10-17T11:13:44.865Z,18.6
2016-10-17T11:14:44.871Z,18.51
2016-10-17T11:15:44.892Z,18.61
2016-10-17T11:16:44.924Z,18.63
2016-10-17T11:17:44.952Z,18.48
2016-10-17T11:18:44.965Z,18.39
2016-10-17T11:19:44.993Z,18.27
2016-10-17T11:20:44.900Z,18.18
2016-10-17T11:21:45.060Z,18.11
2016-10-17T11:22:45.060Z,18.16
2016-10-17T11:23:45.074Z,18.26
2016-10-17T11:24:45.432Z,18.12
2016-10-17T11:25:45.443Z,18.15
2016-10-17T11:26:45.471Z,18.09
2016-10-17T11:27:45.492Z,18.15
2016-10-17T11:28:45.215Z,18.13
2016-10-17T11:29:45.223Z,18.09
2016-10-17T11:30:45.273Z,17.95
2016-10-17T11:31:45.283Z,17.84
2016-10-17T11:32:45.605Z,17.84
2016-10-17T11:33:45.650Z,17.82
2016-10-17T11:34:45.663Z,17.78
2016-10-17T11:35:45.743Z,17.84
2016-10-17T11:36:45.386Z,17.78
2016-10-17T11:37:45.420Z,17.72
2016-10-17T11:38:45.800Z,17.6
2016-10-17T11:39:45.472Z,17.56
2016-10-17T11:40:45.492Z,17.52
2016-10-17T11:41:45.835Z,17.59
2016-10-17T11:42:45.855Z,17.66
2016-10-17T11:43:45.555Z,17.56
2016-10-17T11:44:46.026Z,17.66
2016-10-17T11:45:45.924Z,17.78
2016-10-17T11:46:45.989Z,17.79
2016-10-17T11:47:45.988Z,17.76
2016-10-17T11:48:45.984Z,17.8
2016-10-17T11:49:46.003Z,17.82
2016-10-17T11:50:46.039Z,17.97
2016-10-17T11:51:45.820Z,18.09
2016-10-17T11:52:46.082Z,18.13
2016-10-17T11:53:46.103Z,18.11
2016-10-17T11:54:46.124Z,18.13
2016-10-17T11:55:46.141Z,18.19
2016-10-17T11:56:46.182Z,18.31
2016-10-17T11:57:46.199Z,18.42
2016-10-17T11:58:45.930Z,18.6
2016-10-17T11:59:46.383Z,18.7
2016-10-17T12:00:46.287Z,18.67
2016-10-17T12:02:18.282Z,18.74
2016-10-17T12:02:46.371Z,18.68
2016-10-17T12:03:46.019Z,18.76
2016-10-17T12:04:46.407Z,18.74
2016-10-17T12:05:46.122Z,18.81
2016-10-17T12:06:46.414Z,18.86
2016-10-17T12:07:46.439Z,18.88
2016-10-17T12:08:46.570Z,19.04
2016-10-17T12:09:46.166Z,19.04
2016-10-17T12:10:46.522Z,18.88
2016-10-17T12:11:46.238Z,18.96
2016-10-17T12:12:46.261Z,18.97
2016-10-17T12:13:46.572Z,18.88
2016-10-17T12:14:46.290Z,18.98
2016-10-17T12:15:46.624Z,18.97
2016-10-17T12:16:46.699Z,18.97
2016-10-17T12:17:46.418Z,19.04
2016-10-17T12:18:46.381Z,18.97
2016-10-17T12:19:46.420Z,18.96
2016-10-17T12:20:46.433Z,19.01
2016-10-17T12:21:46.802Z,18.83
2016-10-17T12:22:46.800Z,19.01
2016-10-17T12:23:46.571Z,18.89
2016-10-17T12:24:46.532Z,18.96
2016-10-17T12:25:46.557Z,18.83
2016-10-17T12:26:46.579Z,18.88
2016-10-17T12:27:46.921Z,19.04
2016-10-17T12:28:46.938Z,19
2016-10-17T12:29:46.951Z,18.94
2016-10-17T12:30:46.990Z,18.86
2016-10-17T12:31:47.020Z,19
2016-10-17T12:32:46.919Z,18.97
2016-10-17T12:33:46.770Z,18.86
2016-10-17T12:34:46.784Z,18.78
2016-10-17T12:35:46.800Z,18.68
2016-10-17T12:36:46.830Z,18.71
2016-10-17T12:37:46.900Z,18.61
2016-10-17T12:38:46.876Z,18.61
2016-10-17T12:39:47.199Z,18.52
2016-10-17T12:40:47.222Z,18.49
2016-10-17T12:41:46.632Z,18.48
2016-10-17T12:42:46.987Z,18.49
2016-10-17T12:43:47.348Z,18.58
2016-10-17T12:44:47.028Z,18.63
2016-10-17T12:45:47.064Z,18.7
2016-10-17T12:46:46.758Z,18.63
2016-10-17T12:47:47.410Z,18.73
2016-10-17T12:48:47.489Z,18.88
2016-10-17T12:49:47.466Z,18.85
2016-10-17T12:50:47.479Z,18.91
2016-10-17T12:51:47.500Z,18.97
2016-10-17T12:52:47.225Z,18.97
2016-10-17T12:53:47.259Z,19
2016-10-17T12:54:47.273Z,18.89
2016-10-17T12:55:47.699Z,19
2016-10-17T12:56:47.635Z,18.83